createdAt,value
2019-05-26T00:00:59.099Z,100397.46
2019-05-26T00:03:27.088Z,100394.80
2019-05-26T00:05:55.089Z,100397.46
2019-05-26T00:08:23.148Z,100392.23
2019-05-26T00:10:51.285Z,100395.93
2019-05-26T00:13:19.370Z,100388.80
2019-05-26T00:15:47.469Z,100385.87
2019-05-26T00:18:15.626Z,100385.87
2019-05-26T00:20:44.096Z,100378.81
2019-05-26T00:23:12.078Z,100380.74
2019-05-26T00:25:40.160Z,100382.17
2019-05-26T00:28:08.143Z,100379.87
2019-05-26T00:30:36.302Z,100381.41
2019-05-26T00:33:04.354Z,100380.55
2019-05-26T00:35:32.370Z,100373.16
2019-05-26T00:38:00.355Z,100376.75
2019-05-26T00:40:29.097Z,100368.29
2019-05-26T00:42:57.149Z,100362.70
2019-05-26T00:45:25.218Z,100362.70
2019-05-26T00:47:53.225Z,100358.30
2019-05-26T00:50:21.307Z,100356.60
2019-05-26T00:52:49.286Z,100358.50
2019-05-26T00:55:17.358Z,100355.84
2019-05-26T00:57:45.333Z,100347.95
2019-05-26T01:00:13.347Z,100349.78
2019-05-26T01:02:41.410Z,100344.55
2019-05-26T01:05:09.535Z,100345.02
2019-05-26T01:07:37.655Z,100350.44
2019-05-26T01:10:05.926Z,100350.17
2019-05-26T01:12:33.988Z,100351.02
2019-05-26T01:15:01.999Z,100350.17
2019-05-26T01:17:30.213Z,100353.04
2019-05-26T01:19:58.214Z,100357.60
2019-05-26T01:22:26.274Z,100350.55
2019-05-26T01:24:54.352Z,100343.02
2019-05-26T01:27:22.426Z,100336.83
2019-05-26T01:29:50.478Z,100331.50
2019-05-26T01:32:18.489Z,100336.92
2019-05-26T01:34:46.536Z,100334.37
2019-05-26T01:37:14.605Z,100330.77
2019-05-26T01:39:42.739Z,100322.02
2019-05-26T01:42:10.746Z,100322.98
2019-05-26T01:44:38.879Z,100322.48
2019-05-26T01:47:06.922Z,100319.09
2019-05-26T01:49:35.063Z,100324.01
2019-05-26T01:52:03.058Z,100325.44
2019-05-26T01:54:31.192Z,100325.94
2019-05-26T01:56:59.203Z,100322.88
2019-05-26T01:59:27.273Z,100327.73
2019-05-26T02:01:58.545Z,100327.84
2019-05-26T02:04:25.012Z,100329.63
2019-05-26T02:06:53.037Z,100322.61
2019-05-26T02:09:21.023Z,100329.37
2019-05-26T02:11:49.178Z,100329.83
2019-05-26T02:14:17.236Z,100328.03
2019-05-26T02:16:58.997Z,100325.57
2019-05-26T02:19:14.936Z,100322.81
2019-05-26T02:21:43.002Z,100320.71
2019-05-26T02:24:11.055Z,100322.55
2019-05-26T02:26:39.230Z,100323.38
2019-05-26T02:29:07.283Z,100321.67
2019-05-26T02:31:35.372Z,100317.88
2019-05-26T02:34:03.435Z,100317.31
2019-05-26T02:36:31.515Z,100318.25
2019-05-26T02:39:02.486Z,100314.84
2019-05-26T02:41:29.370Z,100312.66
2019-05-26T02:43:57.501Z,100318.94
2019-05-26T02:46:25.543Z,100316.84
2019-05-26T02:48:53.535Z,100317.31
2019-05-26T02:51:21.747Z,100313.91
2019-05-26T02:53:49.685Z,100309.52
2019-05-26T02:56:17.688Z,100311.35
2019-05-26T02:58:45.741Z,100314.48
2019-05-26T03:01:13.834Z,100309.72
2019-05-26T03:03:41.820Z,100307.55
2019-05-26T03:06:09.937Z,100309.35
2019-05-26T03:08:37.951Z,100301.00
2019-05-26T03:11:05.948Z,100296.14
2019-05-26T03:13:35.099Z,100300.59
2019-05-26T03:16:03.127Z,100303.76
2019-05-26T03:18:31.208Z,100296.23
2019-05-26T03:20:59.199Z,100298.03
2019-05-26T03:23:27.811Z,100293.67
2019-05-26T03:25:55.873Z,100289.88
2019-05-26T03:28:23.875Z,100291.58
2019-05-26T03:30:52.029Z,100297.09
2019-05-26T03:33:20.105Z,100293.51
2019-05-26T03:35:48.295Z,100293.97
2019-05-26T03:38:16.292Z,100296.27
2019-05-26T03:40:44.347Z,100289.61
2019-05-26T03:43:12.508Z,100292.84
2019-05-26T03:46:14.694Z,100291.97
2019-05-26T03:48:42.714Z,100284.48
2019-05-26T03:51:10.795Z,100287.71
2019-05-26T03:53:38.891Z,100291.70
2019-05-26T03:56:06.931Z,100281.06
2019-05-26T03:58:35.106Z,100283.35
2019-05-26T04:01:03.183Z,100274.04
2019-05-26T04:03:31.189Z,100268.22
2019-05-26T04:05:59.247Z,100263.76
2019-05-26T04:08:27.248Z,100263.39
2019-05-26T04:11:14.345Z,100257.30
2019-05-26T04:13:42.347Z,100254.18
2019-05-26T04:16:18.215Z,100253.41
2019-05-26T04:18:46.298Z,100254.74
2019-05-26T04:21:14.374Z,100254.84
2019-05-26T04:23:42.491Z,100246.49
2019-05-26T04:26:10.442Z,100247.33
2019-05-26T04:28:38.440Z,100242.10
2019-05-26T04:31:06.600Z,100239.84
2019-05-26T04:33:34.614Z,100237.18
2019-05-26T04:36:02.673Z,100240.67
2019-05-26T04:38:30.681Z,100242.40
2019-05-26T04:40:58.639Z,100237.18
2019-05-26T04:43:26.733Z,100242.30
2019-05-26T04:45:54.710Z,100235.75
2019-05-26T04:48:22.741Z,100238.88
2019-05-26T04:50:50.802Z,100241.17
2019-05-26T04:53:18.893Z,100240.77
2019-05-26T04:55:46.952Z,100241.63
2019-05-26T04:58:14.971Z,100236.41
2019-05-26T05:00:43.027Z,100239.54
2019-05-26T05:03:11.098Z,100239.63
2019-05-26T05:05:39.147Z,100233.58
2019-05-26T05:08:07.241Z,100235.28
2019-05-26T05:10:42.179Z,100243.63
2019-05-26T05:13:04.950Z,100239.63
2019-05-26T05:15:32.922Z,100235.28
2019-05-26T05:18:00.934Z,100236.61
2019-05-26T05:20:28.907Z,100237.47
2019-05-26T05:22:56.979Z,100231.19
2019-05-26T05:25:24.975Z,100232.42
2019-05-26T05:27:52.998Z,100228.16
2019-05-26T05:30:21.056Z,100232.79
2019-05-26T05:32:49.215Z,100229.30
2019-05-26T05:35:17.264Z,100228.70
2019-05-26T05:37:45.322Z,100220.72
2019-05-26T05:40:13.499Z,100219.38
2019-05-26T05:42:41.547Z,100220.52
2019-05-26T05:45:09.630Z,100221.19
2019-05-26T05:47:37.727Z,100213.47
2019-05-26T05:50:06.089Z,100209.38
2019-05-26T05:52:34.106Z,100211.01
2019-05-26T05:55:02.290Z,100206.05
2019-05-26T05:57:30.280Z,100201.95
2019-05-26T05:59:58.308Z,100204.16
2019-05-26T06:02:26.342Z,100210.11
2019-05-26T06:04:54.384Z,100209.91
2019-05-26T06:07:22.426Z,100208.58
2019-05-26T06:09:50.514Z,100206.21
2019-05-26T06:12:18.608Z,100209.70
2019-05-26T06:14:46.701Z,100206.58
2019-05-26T06:17:14.684Z,100210.56
2019-05-26T06:19:46.458Z,100200.69
2019-05-26T06:22:14.430Z,100204.94
2019-05-26T06:24:42.426Z,100204.58
2019-05-26T06:27:10.414Z,100203.98
2019-05-26T06:29:38.497Z,100201.61
2019-05-26T06:32:06.712Z,100200.17
2019-05-26T06:34:34.966Z,100204.44
2019-05-26T06:37:03.028Z,100203.27
2019-05-26T06:39:31.032Z,100203.45
2019-05-26T06:41:59.027Z,100203.25
2019-05-26T06:44:27.782Z,100201.72
2019-05-26T06:46:56.155Z,100212.06
2019-05-26T06:49:24.190Z,100209.95
2019-05-26T06:51:52.324Z,100208.05
2019-05-26T06:54:20.322Z,100207.38
2019-05-26T06:56:48.344Z,100207.17
2019-05-26T06:59:16.532Z,100208.39
2019-05-26T07:01:44.634Z,100204.66
2019-05-26T07:04:12.683Z,100208.55
2019-05-26T07:06:40.730Z,100206.25
2019-05-26T07:09:08.745Z,100205.68
2019-05-26T07:11:54.007Z,100206.80
2019-05-26T07:14:06.474Z,100200.91
2019-05-26T07:16:38.547Z,100198.13
2019-05-26T07:19:04.226Z,100193.32
2019-05-26T07:21:32.255Z,100191.09
2019-05-26T07:24:00.271Z,100189.19
2019-05-26T07:26:28.339Z,100193.34
2019-05-26T07:28:56.347Z,100192.16
2019-05-26T07:31:24.334Z,100197.78
2019-05-26T07:33:52.367Z,100187.37
2019-05-26T07:36:20.421Z,100181.83
2019-05-26T07:41:35.726Z,100175.67
2019-05-26T07:46:37.357Z,100188.09
2019-05-26T07:49:05.444Z,100189.69
2019-05-26T07:51:33.487Z,100186.91
2019-05-26T07:54:01.555Z,100185.86
2019-05-26T07:56:29.639Z,100180.03
2019-05-26T07:58:57.698Z,100171.92
2019-05-26T08:01:44.982Z,100186.26
2019-05-26T08:04:12.987Z,100183.48
2019-05-26T08:06:40.978Z,100186.55
2019-05-26T08:09:09.279Z,100179.87
2019-05-26T08:11:37.282Z,100178.44
2019-05-26T08:14:05.485Z,100176.48
2019-05-26T08:16:33.507Z,100182.69
2019-05-26T08:19:01.498Z,100181.25
2019-05-26T08:21:29.590Z,100191.80
2019-05-26T08:23:57.572Z,100186.83
2019-05-26T08:26:25.567Z,100185.92
2019-05-26T08:28:55.069Z,100191.26
2019-05-26T08:31:23.362Z,100187.62
2019-05-26T08:33:51.420Z,100195.16
2019-05-26T08:36:19.426Z,100187.98
2019-05-26T08:38:47.410Z,100183.40
2019-05-26T08:41:15.503Z,100174.81
2019-05-26T08:43:43.477Z,100176.87
2019-05-26T08:46:11.534Z,100176.29
2019-05-26T08:48:39.962Z,100177.05
2019-05-26T08:51:08.106Z,100171.70
2019-05-26T08:53:36.243Z,100174.16
2019-05-26T08:56:04.270Z,100168.71
2019-05-26T08:58:32.246Z,100161.93
2019-05-26T09:01:00.249Z,100162.54
2019-05-26T09:03:29.059Z,100165.48
2019-05-26T09:05:57.059Z,100155.17
2019-05-26T09:08:25.263Z,100157.03
2019-05-26T09:10:53.297Z,100145.27
2019-05-26T09:13:21.286Z,100152.58
2019-05-26T09:15:49.338Z,100143.38
2019-05-26T09:18:17.330Z,100151.63
2019-05-26T09:20:45.336Z,100142.06
2019-05-26T09:23:13.456Z,100140.03
2019-05-26T09:25:41.567Z,100126.57
2019-05-26T09:28:09.758Z,100125.00
2019-05-26T09:30:37.845Z,100129.64
2019-05-26T09:33:05.903Z,100128.08
2019-05-26T09:35:34.014Z,100132.21
2019-05-26T09:38:02.062Z,100137.80
2019-05-26T09:40:30.138Z,100129.55
2019-05-26T09:42:58.214Z,100129.08
2019-05-26T09:45:26.293Z,100136.50
2019-05-26T09:47:54.450Z,100141.73
2019-05-26T09:50:22.450Z,100134.31
2019-05-26T09:52:50.498Z,100131.41
2019-05-26T09:55:18.483Z,100129.38
2019-05-26T09:57:46.514Z,100138.38
2019-05-26T10:00:16.260Z,100133.70
2019-05-26T10:02:44.359Z,100128.72
2019-05-26T10:05:12.366Z,100124.86
2019-05-26T10:07:40.411Z,100122.08
2019-05-26T10:10:08.417Z,100127.42
2019-05-26T10:12:36.567Z,100128.01
2019-05-26T10:15:06.398Z,100124.13
2019-05-26T10:17:34.428Z,100123.77
2019-05-26T10:20:02.434Z,100125.69
2019-05-26T10:22:30.425Z,100123.25
2019-05-26T10:24:58.399Z,100123.73
2019-05-26T10:27:26.563Z,100122.03
2019-05-26T10:29:54.542Z,100115.00
2019-05-26T10:32:22.625Z,100120.23
2019-05-26T10:34:50.674Z,100118.03
2019-05-26T10:37:18.683Z,100115.24
2019-05-26T10:39:46.668Z,100119.60
2019-05-26T10:42:14.746Z,100111.00
2019-05-26T10:44:42.719Z,100115.88
2019-05-26T10:47:10.751Z,100120.34
2019-05-26T10:49:38.999Z,100123.38
2019-05-26T10:52:07.063Z,100123.02
2019-05-26T10:54:35.032Z,100117.80
2019-05-26T10:57:03.040Z,100117.32
2019-05-26T10:59:31.353Z,100119.13
2019-05-26T11:02:11.026Z,100110.77
2019-05-26T11:04:29.129Z,100113.78
2019-05-26T11:06:57.121Z,100108.92
2019-05-26T11:09:25.267Z,100107.47
2019-05-26T11:11:53.282Z,100106.99
2019-05-26T11:14:21.261Z,100093.64
2019-05-26T11:16:49.295Z,100096.31
2019-05-26T11:19:17.354Z,100088.30
2019-05-26T11:21:45.408Z,100091.83
2019-05-26T11:24:13.420Z,100089.52
2019-05-26T11:26:41.484Z,100084.64
2019-05-26T11:29:09.459Z,100089.52
2019-05-26T11:31:37.553Z,100085.98
2019-05-26T11:34:05.557Z,100080.16
2019-05-26T11:36:33.689Z,100083.19
2019-05-26T11:39:01.658Z,100080.05
2019-05-26T11:41:30.122Z,100077.26
2019-05-26T11:43:58.141Z,100072.39
2019-05-26T11:46:26.238Z,100065.70
2019-05-26T11:48:54.210Z,100066.57
2019-05-26T11:51:22.357Z,100065.23
2019-05-26T11:53:50.414Z,100060.75
2019-05-26T11:56:18.411Z,100065.23
2019-05-26T11:58:46.422Z,100068.65
2019-05-26T12:01:14.466Z,100059.42
2019-05-26T12:03:42.475Z,100051.88
2019-05-26T12:06:10.459Z,100058.55
2019-05-26T12:08:38.536Z,100059.53
2019-05-26T12:11:06.511Z,100061.70
2019-05-26T12:13:36.664Z,100062.09
2019-05-26T12:16:04.223Z,100065.23
2019-05-26T12:18:32.229Z,100061.23
2019-05-26T12:21:00.390Z,100056.74
2019-05-26T12:23:28.554Z,100051.41
2019-05-26T12:25:56.533Z,100048.73
2019-05-26T12:28:24.603Z,100045.94
2019-05-26T12:30:52.591Z,100043.63
2019-05-26T12:33:20.589Z,100039.97
2019-05-26T12:35:48.583Z,100031.13
2019-05-26T12:38:16.667Z,100029.55
2019-05-26T12:40:44.710Z,100028.92
2019-05-26T12:43:12.792Z,100027.47
2019-05-26T12:45:40.802Z,100026.40
2019-05-26T12:48:08.900Z,100015.08
2019-05-26T12:50:37.027Z,100015.34
2019-05-26T12:53:05.637Z,100012.05
2019-05-26T12:55:33.606Z,100008.30
2019-05-26T12:58:01.813Z,100013.02
2019-05-26T13:00:47.072Z,100005.75
2019-05-26T13:02:59.752Z,99999.80
2019-05-26T13:05:27.738Z,100005.02
2019-05-26T13:07:55.814Z,100014.61
2019-05-26T13:10:23.835Z,99999.79
2019-05-26T13:12:51.930Z,100002.34
2019-05-26T13:15:19.910Z,99996.75
2019-05-26T13:17:47.927Z,99996.98
2019-05-26T13:20:15.907Z,100001.25
2019-05-26T13:22:44.048Z,99999.28
2019-05-26T13:25:12.108Z,100000.50
2019-05-26T13:27:40.141Z,99990.19
2019-05-26T13:30:08.408Z,99994.08
2019-05-26T13:32:36.398Z,99990.30
2019-05-26T13:35:04.534Z,99990.52
2019-05-26T13:37:32.594Z,99984.92
2019-05-26T13:40:00.695Z,99978.50
2019-05-26T13:42:28.778Z,99982.39
2019-05-26T13:44:56.794Z,99985.04
2019-05-26T13:47:26.408Z,99976.77
2019-05-26T13:49:54.447Z,99977.38
2019-05-26T13:52:22.419Z,99975.82
2019-05-26T13:54:50.479Z,99975.06
2019-05-26T13:57:18.451Z,99975.06
2019-05-26T13:59:46.527Z,99974.11
2019-05-26T14:02:14.495Z,99975.31
2019-05-26T14:04:42.506Z,99968.63
2019-05-26T14:07:10.546Z,99971.66
2019-05-26T14:09:38.706Z,99958.28
2019-05-26T14:12:06.665Z,99959.97
2019-05-26T14:14:34.679Z,99952.68
2019-05-26T14:17:02.742Z,99960.45
2019-05-26T14:19:30.812Z,99956.66
2019-05-26T14:21:58.873Z,99944.88
2019-05-26T14:24:26.901Z,99943.38
2019-05-26T14:26:54.883Z,99944.72
2019-05-26T14:29:22.938Z,99950.29
2019-05-26T14:31:52.877Z,99943.13
2019-05-26T14:34:20.642Z,99939.33
2019-05-26T14:36:48.691Z,99933.98
2019-05-26T14:39:16.795Z,99932.52
2019-05-26T14:41:44.785Z,99934.58
2019-05-26T14:44:12.784Z,99925.95
2019-05-26T14:46:40.818Z,99923.63
2019-05-26T14:49:08.807Z,99918.14
2019-05-26T14:51:36.770Z,99911.53
2019-05-26T14:54:04.778Z,99911.23
2019-05-26T14:56:32.845Z,99903.33
2019-05-26T14:59:00.963Z,99913.77
2019-05-26T15:01:29.216Z,99904.97
2019-05-26T15:03:57.346Z,99904.22
2019-05-26T15:06:25.319Z,99896.41
2019-05-26T15:08:53.319Z,99897.61
2019-05-26T15:11:21.381Z,99900.75
2019-05-26T15:13:49.377Z,99896.61
2019-05-26T15:16:17.418Z,99905.50
2019-05-26T15:18:45.435Z,99897.47
2019-05-26T15:21:13.433Z,99896.47
2019-05-26T15:23:41.430Z,99900.84
2019-05-26T15:26:09.406Z,99892.33
2019-05-26T15:28:37.578Z,99886.95
2019-05-26T15:31:05.621Z,99890.27
2019-05-26T15:33:33.606Z,99887.22
2019-05-26T15:36:01.639Z,99884.19
2019-05-26T15:38:42.034Z,99883.81
2019-05-26T15:40:59.652Z,99878.45
2019-05-26T15:43:28.074Z,99874.06
2019-05-26T15:45:56.078Z,99877.50
2019-05-26T15:48:24.161Z,99868.70
2019-05-26T15:50:52.163Z,99874.70
2019-05-26T15:53:20.132Z,99864.95
2019-05-26T15:55:48.210Z,99864.61
2019-05-26T15:58:16.265Z,99868.89
2019-05-26T16:00:44.346Z,99862.46
2019-05-26T16:03:12.494Z,99860.39
2019-05-26T16:05:40.527Z,99857.03
2019-05-26T16:08:08.526Z,99856.56
2019-05-26T16:10:36.531Z,99858.76
2019-05-26T16:13:04.583Z,99862.66
2019-05-26T16:15:32.728Z,99859.05
2019-05-26T16:18:00.786Z,99849.45
2019-05-26T16:20:28.876Z,99843.89
2019-05-26T16:22:56.848Z,99839.14
2019-05-26T16:25:24.839Z,99842.09
2019-05-26T16:27:52.885Z,99841.02
2019-05-26T16:30:20.958Z,99838.59
2019-05-26T16:32:48.931Z,99833.52
2019-05-26T16:35:17.010Z,99825.75
2019-05-26T16:37:45.055Z,99829.41
2019-05-26T16:40:13.146Z,99827.86
2019-05-26T16:42:41.191Z,99831.14
2019-05-26T16:45:09.274Z,99831.63
2019-05-26T16:47:37.355Z,99829.20
2019-05-26T16:50:05.539Z,99828.38
2019-05-26T16:52:33.518Z,99820.10
2019-05-26T16:55:01.580Z,99823.77
2019-05-26T16:57:29.628Z,99811.00
2019-05-26T16:59:57.625Z,99808.84
2019-05-26T17:02:25.602Z,99816.86
2019-05-26T17:04:53.844Z,99809.92
2019-05-26T17:07:21.927Z,99802.28
2019-05-26T17:09:49.966Z,99799.73
2019-05-26T17:12:17.938Z,99799.23
2019-05-26T17:14:45.965Z,99803.75
2019-05-26T17:17:15.390Z,99800.34
2019-05-26T17:19:43.607Z,99791.46
2019-05-26T17:22:11.930Z,99786.63
2019-05-26T17:24:39.975Z,99791.59
2019-05-26T17:27:07.971Z,99794.40
2019-05-26T17:29:35.947Z,99793.06
2019-05-26T17:32:04.014Z,99785.42
2019-05-26T17:34:31.992Z,99787.58
2019-05-26T17:37:00.062Z,99786.97
2019-05-26T17:39:28.051Z,99793.53
2019-05-26T17:41:56.128Z,99784.89
2019-05-26T17:44:24.249Z,99792.79
2019-05-26T17:46:52.287Z,99784.77
2019-05-26T17:49:20.268Z,99782.91
2019-05-26T17:51:48.272Z,99782.57
2019-05-26T17:54:16.242Z,99785.24
2019-05-26T17:56:44.323Z,99781.02
2019-05-26T17:59:12.386Z,99782.83
2019-05-26T18:01:40.459Z,99786.50
2019-05-26T18:04:08.511Z,99778.60
2019-05-26T18:06:36.584Z,99776.06
2019-05-26T18:09:05.486Z,99769.84
2019-05-26T18:11:33.482Z,99768.16
2019-05-26T18:14:01.539Z,99769.63
2019-05-26T18:16:29.526Z,99769.77
2019-05-26T18:18:57.572Z,99762.56
2019-05-26T18:21:25.558Z,99767.22
2019-05-26T18:23:53.546Z,99770.84
2019-05-26T18:26:21.650Z,99766.49
2019-05-26T18:28:49.726Z,99759.05
2019-05-26T18:31:17.762Z,99765.73
2019-05-26T18:33:45.866Z,99763.19
2019-05-26T18:36:14.064Z,99760.16
2019-05-26T18:38:42.342Z,99757.63
2019-05-26T18:41:10.414Z,99756.41
2019-05-26T18:43:38.551Z,99756.55
2019-05-26T18:46:06.706Z,99755.34
2019-05-26T18:48:34.711Z,99754.98
2019-05-26T18:51:02.711Z,99756.80
2019-05-26T18:53:30.691Z,99759.13
2019-05-26T18:55:58.763Z,99756.08
2019-05-26T18:58:26.814Z,99752.58
2019-05-26T19:00:54.889Z,99756.72
2019-05-26T19:03:22.941Z,99754.05
2019-05-26T19:05:51.110Z,99755.51
2019-05-26T19:08:19.098Z,99742.27
2019-05-26T19:10:47.127Z,99741.89
2019-05-26T19:13:15.258Z,99747.75
2019-05-26T19:15:43.494Z,99746.89
2019-05-26T19:18:19.784Z,99743.87
2019-05-26T19:20:41.514Z,99739.48
2019-05-26T19:23:09.494Z,99737.31
2019-05-26T19:25:56.607Z,99734.77
2019-05-26T19:28:24.678Z,99731.23
2019-05-26T19:30:52.656Z,99734.91
2019-05-26T19:33:20.655Z,99736.72
2019-05-26T19:35:48.702Z,99742.54
2019-05-26T19:38:16.787Z,99740.86
2019-05-26T19:40:44.758Z,99745.85
2019-05-26T19:43:12.784Z,99746.33
2019-05-26T19:45:40.834Z,99748.52
2019-05-26T19:48:09.020Z,99747.31
2019-05-26T19:50:37.125Z,99752.80
2019-05-26T19:53:05.249Z,99748.27
2019-05-26T19:55:33.231Z,99749.27
2019-05-26T19:58:01.304Z,99744.39
2019-05-26T20:00:29.374Z,99749.87
2019-05-26T20:02:58.495Z,99748.05
2019-05-26T20:05:26.723Z,99746.84
2019-05-26T20:07:54.792Z,99749.04
2019-05-26T20:10:23.139Z,99745.16
2019-05-26T20:12:51.292Z,99742.97
2019-05-26T20:15:19.302Z,99743.45
2019-05-26T20:17:47.409Z,99742.62
2019-05-26T20:20:15.819Z,99735.20
2019-05-26T20:22:43.862Z,99736.06
2019-05-26T20:25:11.911Z,99737.53
2019-05-26T20:27:59.036Z,99729.00
2019-05-26T20:30:27.154Z,99735.33
2019-05-26T20:32:55.365Z,99726.11
2019-05-26T20:35:23.294Z,99730.59
2019-05-26T20:37:51.444Z,99726.59
2019-05-26T20:40:19.503Z,99730.12
2019-05-26T20:42:47.591Z,99728.91
2019-05-26T20:45:15.758Z,99725.38
2019-05-26T20:47:43.839Z,99719.20
2019-05-26T20:50:27.708Z,99717.48
2019-05-26T20:52:41.568Z,99718.83
2019-05-26T20:55:09.590Z,99715.80
2019-05-26T20:57:37.677Z,99715.33
2019-05-26T21:00:06.060Z,99713.14
2019-05-26T21:02:34.463Z,99706.58
2019-05-26T21:05:02.607Z,99703.05
2019-05-26T21:07:30.562Z,99709.38
2019-05-26T21:09:58.734Z,99701.37
2019-05-26T21:12:27.015Z,99704.04
2019-05-26T21:14:55.066Z,99694.81
2019-05-26T21:17:23.207Z,99695.16
2019-05-26T21:19:51.179Z,99696.63
2019-05-26T21:22:19.174Z,99697.48
2019-05-26T21:24:47.555Z,99701.97
2019-05-26T21:27:15.849Z,99696.28
2019-05-26T21:29:43.874Z,99690.94
2019-05-26T21:32:11.918Z,99687.92
2019-05-26T21:34:40.877Z,99684.86
2019-05-26T21:37:08.871Z,99683.05
2019-05-26T21:39:36.955Z,99690.59
2019-05-26T21:42:04.954Z,99687.19
2019-05-26T21:44:32.958Z,99688.52
2019-05-26T21:47:01.030Z,99681.50
2019-05-26T21:49:29.114Z,99686.84
2019-05-26T21:51:57.170Z,99680.98
2019-05-26T21:54:25.216Z,99682.45
2019-05-26T21:56:53.298Z,99676.28
2019-05-26T21:59:21.507Z,99666.93
2019-05-26T22:01:49.588Z,99664.73
2019-05-26T22:04:17.733Z,99664.73
2019-05-26T22:06:45.807Z,99668.39
2019-05-26T22:09:13.887Z,99671.06
2019-05-26T22:11:41.950Z,99664.01
2019-05-26T22:14:09.994Z,99659.65
2019-05-26T22:16:37.970Z,99665.34
2019-05-26T22:19:05.986Z,99663.66
2019-05-26T22:21:34.040Z,99660.13
2019-05-26T22:24:02.173Z,99659.78
2019-05-26T22:26:30.235Z,99643.88
2019-05-26T22:28:58.305Z,99649.57
2019-05-26T22:31:26.282Z,99652.75
2019-05-26T22:33:54.298Z,99643.88
2019-05-26T22:36:22.279Z,99649.70
2019-05-26T22:38:50.430Z,99643.16
2019-05-26T22:41:18.471Z,99635.65
2019-05-26T22:43:46.467Z,99642.33
2019-05-26T22:46:14.530Z,99644.14
2019-05-26T22:48:42.735Z,99634.31
2019-05-26T22:51:10.783Z,99641.47
2019-05-26T22:53:38.867Z,99638.45
2019-05-26T22:56:06.846Z,99644.27
2019-05-26T22:58:34.922Z,99634.92
2019-05-26T23:03:50.012Z,99640.73
2019-05-26T23:06:18.061Z,99630.70
2019-05-26T23:08:46.107Z,99635.39
2019-05-26T23:11:14.158Z,99624.97
2019-05-26T23:13:42.143Z,99623.16
2019-05-26T23:16:10.106Z,99622.30
2019-05-26T23:18:38.246Z,99625.48
2019-05-26T23:21:06.238Z,99623.28
2019-05-26T23:23:34.229Z,99617.59
2019-05-26T23:26:02.194Z,99614.93
2019-05-26T23:28:30.250Z,99615.41
2019-05-26T23:30:58.382Z,99610.54
2019-05-26T23:33:26.438Z,99615.75
2019-05-26T23:35:54.608Z,99608.86
2019-05-26T23:38:22.587Z,99610.19
2019-05-26T23:40:50.641Z,99612.86
2019-05-26T23:43:18.694Z,99615.19
2019-05-26T23:45:46.693Z,99620.53
2019-05-26T23:48:14.834Z,99617.00
2019-05-26T23:50:43.174Z,99619.19
2019-05-26T23:53:11.268Z,99611.31
2019-05-26T23:55:39.385Z,99607.30
2019-05-26T23:58:07.358Z,99612.64
